createdAt,value
2023-01-01T00:02:02.907Z,11.77
2023-01-01T00:04:29.694Z,13.18
2023-01-01T00:06:56.246Z,12.55
2023-01-01T00:09:41.822Z,13.35
2023-01-01T00:12:08.447Z,13.15
2023-01-01T00:14:35.081Z,12.23
2023-01-01T00:17:02.014Z,12.13
2023-01-01T00:19:28.598Z,12.48
2023-01-01T00:21:55.430Z,12.90
2023-01-01T00:24:22.058Z,11.73
2023-01-01T00:26:48.619Z,13.18
2023-01-01T00:29:15.163Z,12.43
2023-01-01T00:31:41.760Z,12.65
2023-01-01T00:34:10.103Z,12.55
2023-01-01T00:36:36.605Z,12.02
2023-01-01T00:39:04.096Z,13.07
2023-01-01T00:41:30.725Z,12.60
2023-01-01T00:43:57.310Z,12.20
2023-01-01T00:46:23.883Z,11.93
2023-01-01T00:48:50.408Z,12.15
2023-01-01T00:51:17.035Z,11.48
2023-01-01T00:53:43.555Z,10.85
2023-01-01T00:56:10.052Z,11.75
2023-01-01T00:58:36.553Z,11.38
2023-01-01T01:01:03.385Z,10.90
2023-01-01T01:03:30.759Z,11.70
2023-01-01T01:06:09.211Z,10.93
2023-01-01T01:08:38.117Z,11.10
2023-01-01T01:11:06.031Z,10.52
2023-01-01T01:13:32.753Z,10.70
2023-01-01T01:15:59.249Z,10.15
2023-01-01T01:18:25.787Z,10.45
2023-01-01T01:20:54.103Z,9.48
2023-01-01T01:23:20.970Z,10.63
2023-01-01T01:25:47.729Z,9.98
2023-01-01T01:28:14.273Z,9.65
2023-01-01T01:30:41.467Z,10.02
2023-01-01T01:33:08.054Z,9.60
2023-01-01T01:35:34.582Z,9.43
2023-01-01T01:38:01.078Z,8.88
2023-01-01T01:40:27.590Z,9.27
2023-01-01T01:42:54.246Z,8.55
2023-01-01T01:45:21.290Z,8.70
2023-01-01T01:47:57.261Z,8.35
2023-01-01T01:50:34.522Z,8.90
2023-01-01T01:53:07.447Z,8.10
2023-01-01T01:55:37.947Z,7.68
2023-01-01T02:00:32.130Z,7.47
2023-01-01T02:03:14.738Z,7.32
2023-01-01T02:05:41.785Z,8.05
2023-01-01T02:08:10.010Z,7.50
2023-01-01T02:10:37.163Z,7.22
2023-01-01T02:13:03.734Z,6.65
2023-01-01T02:15:38.680Z,6.68
2023-01-01T02:18:13.270Z,6.40
2023-01-01T02:21:05.108Z,6.13
2023-01-01T02:23:54.802Z,6.10
2023-01-01T02:26:38.950Z,5.87
2023-01-01T02:29:22.585Z,6.07
2023-01-01T02:31:53.979Z,5.90
2023-01-01T02:34:24.676Z,5.13
2023-01-01T02:36:55.817Z,5.05
2023-01-01T02:39:27.552Z,5.38
2023-01-01T02:41:56.784Z,5.55
2023-01-01T02:44:26.523Z,5.20
2023-01-01T02:46:53.075Z,4.93
2023-01-01T02:49:19.668Z,4.70
2023-01-01T02:52:11.339Z,4.82
2023-01-01T02:54:59.881Z,4.32
2023-01-01T02:57:41.044Z,4.07
2023-01-01T03:00:27.943Z,4.78
2023-01-01T03:03:22.203Z,4.13
2023-01-01T03:06:23.755Z,4.45
2023-01-01T03:08:56.332Z,4.30
2023-01-01T03:11:25.495Z,4.25
2023-01-01T03:14:07.088Z,3.65
2023-01-01T03:16:43.626Z,3.90
2023-01-01T03:19:23.144Z,3.80
2023-01-01T03:22:05.340Z,4.43
2023-01-01T03:24:36.545Z,3.53
2023-01-01T03:27:09.887Z,3.97
2023-01-01T03:29:41.246Z,3.78
2023-01-01T03:32:16.423Z,3.92
2023-01-01T03:34:53.893Z,3.08
2023-01-01T03:37:26.993Z,3.25
2023-01-01T03:39:59.468Z,3.33
2023-01-01T03:42:38.524Z,3.22
2023-01-01T03:45:19.884Z,3.15
2023-01-01T03:47:46.776Z,2.92
2023-01-01T03:50:14.801Z,3.20
2023-01-01T03:53:02.520Z,3.08
2023-01-01T03:55:41.805Z,2.92
2023-01-01T03:58:20.852Z,2.70
2023-01-01T04:01:04.660Z,2.70
2023-01-01T04:03:34.135Z,2.72
2023-01-01T04:06:02.982Z,2.42
2023-01-01T04:08:31.755Z,2.53
2023-01-01T04:11:00.826Z,2.80
2023-01-01T04:13:27.341Z,2.70
2023-01-01T04:15:53.924Z,2.70
2023-01-01T04:18:20.526Z,2.55
2023-01-01T04:20:47.074Z,1.98
2023-01-01T04:23:13.600Z,2.33
2023-01-01T04:25:40.106Z,2.60
2023-01-01T04:28:06.566Z,2.35
2023-01-01T04:32:59.741Z,2.05
2023-01-01T04:35:26.245Z,2.05
2023-01-01T04:37:52.948Z,1.80
2023-01-01T04:40:19.588Z,2.40
2023-01-01T04:42:46.163Z,2.30
2023-01-01T04:45:15.290Z,2.08
2023-01-01T04:47:42.305Z,2.30
2023-01-01T04:50:09.458Z,2.38
2023-01-01T04:52:36.049Z,2.30
2023-01-01T04:55:02.559Z,1.95
2023-01-01T04:57:30.588Z,1.92
2023-01-01T04:59:57.092Z,1.98
2023-01-01T05:02:23.930Z,2.13
2023-01-01T05:04:50.526Z,1.98
2023-01-01T05:07:17.124Z,1.95
2023-01-01T05:09:43.694Z,2.20
2023-01-01T05:12:10.190Z,2.03
2023-01-01T05:14:36.704Z,1.75
2023-01-01T05:17:03.279Z,1.80
2023-01-01T05:19:29.966Z,1.70
2023-01-01T05:21:56.443Z,1.95
2023-01-01T05:24:22.942Z,1.80
2023-01-01T05:26:49.531Z,1.80
2023-01-01T05:29:17.400Z,1.60
2023-01-01T05:31:45.467Z,2.08
2023-01-01T05:34:12.238Z,2.08
2023-01-01T05:36:39.369Z,1.55
2023-01-01T05:39:11.980Z,1.50
2023-01-01T05:41:38.585Z,1.60
2023-01-01T05:44:07.462Z,1.63
2023-01-01T05:46:34.419Z,1.73
2023-01-01T05:49:00.981Z,1.55
2023-01-01T05:51:29.712Z,1.50
2023-01-01T05:53:57.536Z,1.58
2023-01-01T05:56:24.471Z,1.60
2023-01-01T05:58:51.067Z,1.60
2023-01-01T06:01:27.223Z,1.63
2023-01-01T06:03:55.247Z,1.70
2023-01-01T06:06:25.244Z,1.50
2023-01-01T06:08:57.327Z,1.45
2023-01-01T06:11:24.456Z,1.23
2023-01-01T06:13:59.321Z,1.40
2023-01-01T06:16:27.188Z,1.40
2023-01-01T06:18:53.885Z,1.38
2023-01-01T06:21:22.991Z,1.35
2023-01-01T06:23:49.522Z,1.20
2023-01-01T06:26:18.912Z,1.30
2023-01-01T06:28:46.906Z,1.27
2023-01-01T06:31:15.769Z,1.50
2023-01-01T06:33:42.654Z,1.42
2023-01-01T06:36:11.464Z,1.50
2023-01-01T06:38:40.676Z,1.13
2023-01-01T06:41:10.888Z,1.27
2023-01-01T06:43:38.300Z,1.38
2023-01-01T06:46:15.804Z,1.40
2023-01-01T06:48:42.524Z,1.33
2023-01-01T06:51:14.659Z,1.02
2023-01-01T06:53:41.496Z,1.27
2023-01-01T06:56:08.480Z,1.35
2023-01-01T06:58:35.621Z,1.50
2023-01-01T07:01:13.592Z,1.55
2023-01-01T07:03:41.719Z,1.30
2023-01-01T07:06:09.655Z,1.30
2023-01-01T07:08:37.261Z,1.20
2023-01-01T07:11:04.441Z,1.05
2023-01-01T07:13:31.619Z,1.38
2023-01-01T07:15:58.461Z,1.35
2023-01-01T07:18:25.982Z,1.23
2023-01-01T07:21:03.590Z,1.20
2023-01-01T07:23:32.612Z,1.20
2023-01-01T07:25:59.293Z,1.00
2023-01-01T07:28:26.652Z,1.30
2023-01-01T07:30:54.290Z,1.27
2023-01-01T07:33:23.330Z,1.17
2023-01-01T07:35:50.492Z,1.10
2023-01-01T07:38:17.016Z,1.40
2023-01-01T07:40:43.519Z,1.00
2023-01-01T07:43:10.115Z,1.35
2023-01-01T07:45:36.612Z,1.40
2023-01-01T07:48:03.341Z,1.00
2023-01-01T07:50:32.505Z,1.25
2023-01-01T07:52:59.666Z,1.00
2023-01-01T07:55:26.921Z,1.13
2023-01-01T07:57:53.436Z,1.10
2023-01-01T08:00:21.962Z,1.15
2023-01-01T08:02:49.616Z,1.15
2023-01-01T08:05:19.955Z,1.17
2023-01-01T08:07:51.351Z,0.90
2023-01-01T08:10:20.259Z,0.88
2023-01-01T08:12:47.186Z,1.20
2023-01-01T08:15:14.609Z,1.23
2023-01-01T08:17:46.395Z,1.10
2023-01-01T08:20:13.714Z,1.35
2023-01-01T08:22:40.219Z,0.90
2023-01-01T08:29:02.540Z,1.23
2023-01-01T08:31:29.069Z,1.20
2023-01-01T08:33:55.673Z,1.35
2023-01-01T08:36:22.206Z,1.00
2023-01-01T08:38:48.808Z,1.33
2023-01-01T08:41:15.424Z,1.20
2023-01-01T08:43:41.937Z,1.38
2023-01-01T08:46:08.602Z,1.10
2023-01-01T08:48:35.157Z,1.10
2023-01-01T08:51:01.789Z,1.33
2023-01-01T08:53:30.015Z,1.10
2023-01-01T08:56:04.839Z,1.27
2023-01-01T08:58:31.982Z,1.23
2023-01-01T09:00:59.570Z,1.15
2023-01-01T09:03:26.684Z,1.38
2023-01-01T09:05:54.337Z,1.45
2023-01-01T09:08:21.981Z,1.25
2023-01-01T09:10:49.083Z,1.45
2023-01-01T09:13:19.142Z,1.15
2023-01-01T09:15:46.722Z,1.15
2023-01-01T09:18:14.177Z,1.20
2023-01-01T09:20:41.087Z,1.23
2023-01-01T09:23:08.259Z,1.02
2023-01-01T09:25:35.660Z,1.20
2023-01-01T09:28:08.208Z,1.27
2023-01-01T09:30:35.834Z,1.23
2023-01-01T09:33:02.845Z,1.10
2023-01-01T09:35:30.493Z,1.55
2023-01-01T09:37:57.579Z,1.17
2023-01-01T09:40:32.711Z,1.02
2023-01-01T09:43:21.703Z,1.30
2023-01-01T09:45:54.160Z,1.50
2023-01-01T09:48:21.754Z,1.25
2023-01-01T09:50:48.270Z,1.10
2023-01-01T09:53:34.581Z,1.00
2023-01-01T09:56:03.920Z,1.00
2023-01-01T09:58:36.604Z,1.00
2023-01-01T10:01:17.085Z,1.13
2023-01-01T10:06:24.007Z,1.15
2023-01-01T10:09:16.675Z,1.30
2023-01-01T10:11:53.417Z,1.60
2023-01-01T10:14:46.451Z,1.73
2023-01-01T10:17:27.072Z,1.58
2023-01-01T10:22:36.144Z,1.75
2023-01-01T10:25:26.549Z,1.58
2023-01-01T10:30:29.162Z,1.58
2023-01-01T10:32:57.307Z,1.20
2023-01-01T10:35:32.155Z,1.65
2023-01-01T10:38:00.179Z,1.27
2023-01-01T10:40:29.223Z,1.10
2023-01-01T10:42:57.907Z,1.17
2023-01-01T10:45:36.572Z,1.38
2023-01-01T10:48:19.726Z,1.05
2023-01-01T10:51:01.998Z,1.40
2023-01-01T10:53:39.087Z,1.10
2023-01-01T10:56:07.635Z,1.45
2023-01-01T10:58:46.211Z,1.30
2023-01-01T11:01:32.215Z,1.30
2023-01-01T11:04:17.940Z,1.42
2023-01-01T11:06:47.025Z,1.15
2023-01-01T11:09:23.311Z,1.00
2023-01-01T11:11:59.583Z,1.10
2023-01-01T11:14:34.000Z,0.95
2023-01-01T11:17:00.919Z,0.80
2023-01-01T11:19:36.493Z,1.08
2023-01-01T11:22:03.915Z,1.10
2023-01-01T11:24:32.261Z,1.33
2023-01-01T11:27:19.416Z,1.45
2023-01-01T11:29:46.055Z,1.33
2023-01-01T11:32:21.210Z,1.10
2023-01-01T11:34:58.193Z,1.30
2023-01-01T11:37:34.000Z,1.20
2023-01-01T11:40:01.963Z,1.48
2023-01-01T11:42:33.354Z,1.42
2023-01-01T11:45:20.087Z,1.27
2023-01-01T11:47:53.141Z,1.60
2023-01-01T11:50:26.268Z,1.35
2023-01-01T11:52:54.159Z,1.20
2023-01-01T11:55:52.937Z,1.40
2023-01-01T11:58:28.504Z,1.40
2023-01-01T12:00:58.932Z,1.20
2023-01-01T12:03:33.851Z,1.10
2023-01-01T12:06:12.885Z,1.27
2023-01-01T12:08:51.855Z,1.25
2023-01-01T12:11:25.172Z,1.50
2023-01-01T12:13:59.403Z,1.20
2023-01-01T12:16:41.720Z,1.27
2023-01-01T12:19:18.787Z,1.30
2023-01-01T12:21:52.686Z,1.27
2023-01-01T12:24:20.225Z,1.70
2023-01-01T12:27:14.080Z,1.23
2023-01-01T12:29:49.509Z,1.30
2023-01-01T12:33:08.358Z,1.20
2023-01-01T12:36:14.347Z,1.30
2023-01-01T12:38:56.378Z,1.15
2023-01-01T12:41:41.315Z,1.23
2023-01-01T12:44:14.429Z,1.40
2023-01-01T12:47:01.657Z,1.08
2023-01-01T12:49:54.610Z,1.52
2023-01-01T12:52:45.713Z,1.02
2023-01-01T12:55:49.780Z,1.20
2023-01-01T12:58:32.350Z,1.30
2023-01-01T13:01:04.437Z,1.50
2023-01-01T13:03:37.241Z,1.45
2023-01-01T13:06:05.679Z,1.40
2023-01-01T13:08:35.370Z,1.40
2023-01-01T13:11:03.180Z,1.33
2023-01-01T13:13:29.782Z,1.27
2023-01-01T13:15:57.619Z,1.25
2023-01-01T13:18:32.255Z,1.38
2023-01-01T13:21:05.652Z,1.30
2023-01-01T13:23:32.745Z,1.40
2023-01-01T13:26:32.142Z,1.40
2023-01-01T13:28:58.575Z,1.75
2023-01-01T13:31:40.589Z,1.25
2023-01-01T13:35:12.047Z,1.23
2023-01-01T13:37:43.343Z,1.30
2023-01-01T13:40:12.554Z,1.20
2023-01-01T13:42:59.028Z,1.23
2023-01-01T13:48:24.663Z,1.40
2023-01-01T13:51:33.578Z,1.45
2023-01-01T13:54:26.698Z,1.30
2023-01-01T13:57:23.863Z,1.58
2023-01-01T14:00:05.564Z,1.30
2023-01-01T14:02:45.610Z,1.23
2023-01-01T14:05:26.072Z,1.13
2023-01-01T14:07:54.741Z,1.52
2023-01-01T14:10:23.558Z,1.30
2023-01-01T14:12:51.677Z,1.33
2023-01-01T14:15:32.210Z,1.67
2023-01-01T14:20:49.666Z,1.30
2023-01-01T14:23:44.632Z,1.73
2023-01-01T14:26:15.483Z,1.50
2023-01-01T14:28:43.392Z,1.70
2023-01-01T14:31:18.897Z,1.30
2023-01-01T14:33:45.847Z,1.70
2023-01-01T14:36:25.013Z,1.45
2023-01-01T14:38:54.161Z,1.38
2023-01-01T14:41:23.655Z,1.45
2023-01-01T14:43:53.783Z,1.40
2023-01-01T14:46:23.449Z,1.27
2023-01-01T14:48:56.838Z,1.38
2023-01-01T14:51:26.057Z,1.75
2023-01-01T14:53:55.874Z,1.30
2023-01-01T14:56:34.139Z,1.55
2023-01-01T14:59:13.261Z,1.65
2023-01-01T15:01:41.679Z,1.75
2023-01-01T15:04:23.710Z,1.75
2023-01-01T15:06:58.973Z,1.83
2023-01-01T15:09:27.095Z,1.50
2023-01-01T15:11:55.565Z,1.75
2023-01-01T15:14:45.446Z,1.65
2023-01-01T15:17:14.518Z,1.15
2023-01-01T15:19:44.345Z,1.30
2023-01-01T15:22:28.452Z,1.42
2023-01-01T15:24:55.404Z,1.40
2023-01-01T15:27:28.570Z,1.50
2023-01-01T15:29:57.082Z,1.55
2023-01-01T15:32:28.709Z,1.65
2023-01-01T15:34:58.129Z,1.13
2023-01-01T15:37:57.378Z,1.70
2023-01-01T15:40:23.858Z,1.60
2023-01-01T15:42:56.440Z,1.70
2023-01-01T15:45:26.303Z,1.30
2023-01-01T15:47:55.651Z,1.52
2023-01-01T15:50:28.620Z,1.80
2023-01-01T15:53:01.420Z,1.45
2023-01-01T15:55:34.868Z,2.00
2023-01-01T15:58:03.124Z,1.67
2023-01-01T16:00:33.175Z,1.73
2023-01-01T16:03:12.513Z,1.60
2023-01-01T16:05:47.798Z,1.63
2023-01-01T16:08:14.350Z,1.80
2023-01-01T16:10:40.931Z,1.73
2023-01-01T16:13:07.555Z,1.90
2023-01-01T16:15:36.181Z,2.50
2023-01-01T16:18:03.027Z,2.35
2023-01-01T16:20:29.615Z,2.28
2023-01-01T16:22:56.131Z,2.20
2023-01-01T16:25:23.540Z,2.15
2023-01-01T16:27:50.073Z,1.95
2023-01-01T16:30:16.685Z,2.38
2023-01-01T16:32:43.282Z,2.03
2023-01-01T16:35:13.960Z,2.33
2023-01-01T16:37:40.493Z,2.13
2023-01-01T16:40:08.279Z,2.00
2023-01-01T16:42:34.811Z,2.00
2023-01-01T16:45:01.386Z,2.15
2023-01-01T16:47:28.015Z,2.13
2023-01-01T16:49:54.502Z,2.35
2023-01-01T16:52:21.010Z,2.08
2023-01-01T16:54:48.087Z,1.98
2023-01-01T16:57:14.589Z,1.98
2023-01-01T16:59:41.106Z,1.90
2023-01-01T17:02:10.840Z,2.10
2023-01-01T17:04:37.446Z,2.20
2023-01-01T17:07:03.989Z,2.05
2023-01-01T17:09:30.487Z,2.55
2023-01-01T17:11:57.137Z,2.17
2023-01-01T17:14:23.767Z,2.17
2023-01-01T17:16:53.128Z,2.05
2023-01-01T17:19:19.902Z,2.30
2023-01-01T17:21:47.039Z,1.70
2023-01-01T17:24:19.784Z,2.10
2023-01-01T17:26:49.923Z,2.40
2023-01-01T17:29:16.707Z,2.53
2023-01-01T17:31:44.224Z,2.15
2023-01-01T17:34:14.533Z,2.63
2023-01-01T17:39:11.068Z,2.20
2023-01-01T17:41:38.075Z,2.30
2023-01-01T17:44:04.629Z,2.22
2023-01-01T17:46:33.206Z,2.20
2023-01-01T17:49:01.233Z,2.47
2023-01-01T17:51:28.120Z,1.85
2023-01-01T17:53:55.577Z,2.17
2023-01-01T17:56:23.572Z,2.10
2023-01-01T17:58:52.537Z,2.30
2023-01-01T18:01:22.119Z,2.33
2023-01-01T18:03:53.921Z,2.15
2023-01-01T18:06:20.729Z,2.38
2023-01-01T18:08:47.890Z,2.20
2023-01-01T18:11:14.896Z,2.28
2023-01-01T18:13:41.655Z,2.03
2023-01-01T18:16:08.847Z,1.90
2023-01-01T18:18:37.445Z,2.13
2023-01-01T18:21:06.378Z,2.28
2023-01-01T18:23:37.511Z,1.85
2023-01-01T18:26:06.473Z,2.63
2023-01-01T18:28:33.469Z,2.05
2023-01-01T18:31:18.082Z,1.92
2023-01-01T18:33:47.469Z,2.17
2023-01-01T18:36:16.954Z,1.60
2023-01-01T18:38:46.161Z,1.88
2023-01-01T18:41:27.978Z,2.20
2023-01-01T18:43:55.288Z,2.20
2023-01-01T18:46:24.447Z,2.22
2023-01-01T18:48:57.045Z,1.75
2023-01-01T18:51:26.611Z,2.10
2023-01-01T18:53:58.510Z,2.05
2023-01-01T18:56:25.386Z,2.30
2023-01-01T18:58:55.051Z,1.88
2023-01-01T19:01:23.569Z,2.10
2023-01-01T19:03:56.161Z,2.05
2023-01-01T19:06:28.221Z,1.75
2023-01-01T19:09:17.005Z,1.88
2023-01-01T19:11:44.053Z,2.03
2023-01-01T19:14:22.279Z,1.95
2023-01-01T19:16:51.651Z,1.67
2023-01-01T19:19:24.015Z,2.05
2023-01-01T19:22:06.333Z,1.65
2023-01-01T19:24:35.740Z,1.98
2023-01-01T19:27:10.785Z,1.90
2023-01-01T19:29:42.115Z,2.05
2023-01-01T19:32:08.671Z,1.83
2023-01-01T19:34:37.067Z,2.10
2023-01-01T19:37:03.589Z,1.60
2023-01-01T19:39:31.482Z,2.00
2023-01-01T19:42:03.823Z,1.80
2023-01-01T19:44:34.235Z,1.80
2023-01-01T19:47:00.993Z,2.10
2023-01-01T19:49:28.171Z,1.65
2023-01-01T19:51:54.817Z,2.13
2023-01-01T19:54:21.471Z,1.63
2023-01-01T19:56:49.921Z,1.90
2023-01-01T19:59:16.479Z,1.73
2023-01-01T20:01:43.177Z,1.92
2023-01-01T20:04:09.958Z,1.90
2023-01-01T20:06:36.557Z,1.45
2023-01-01T20:09:03.695Z,1.73
2023-01-01T20:11:31.996Z,1.67
2023-01-01T20:13:58.887Z,1.77
2023-01-01T20:16:25.567Z,1.70
2023-01-01T20:18:52.133Z,1.45
2023-01-01T20:21:37.157Z,1.50
2023-01-01T20:24:03.960Z,1.63
2023-01-01T20:26:30.587Z,1.60
2023-01-01T20:29:15.452Z,1.70
2023-01-01T20:31:59.186Z,1.77
2023-01-01T20:34:25.816Z,1.80
2023-01-01T20:37:11.238Z,1.58
2023-01-01T20:39:38.097Z,1.63
2023-01-01T20:42:04.844Z,1.50
2023-01-01T20:44:31.546Z,1.10
2023-01-01T20:46:58.195Z,1.60
2023-01-01T20:49:24.866Z,1.58
2023-01-01T20:51:52.958Z,1.40
2023-01-01T20:54:20.483Z,1.77
2023-01-01T20:56:47.157Z,2.08
2023-01-01T20:59:34.113Z,1.85
2023-01-01T21:02:01.950Z,1.98
2023-01-01T21:04:28.780Z,1.88
2023-01-01T21:06:55.350Z,1.70
2023-01-01T21:09:21.864Z,1.70
2023-01-01T21:11:48.449Z,1.75
2023-01-01T21:14:15.006Z,1.40
2023-01-01T21:16:43.584Z,1.55
2023-01-01T21:19:11.096Z,1.67
2023-01-01T21:21:47.677Z,1.40
2023-01-01T21:24:39.994Z,1.42
2023-01-01T21:27:24.728Z,1.60
2023-01-01T21:29:54.256Z,1.23
2023-01-01T21:32:39.176Z,1.50
2023-01-01T21:35:34.471Z,1.58
2023-01-01T21:38:12.637Z,1.42
2023-01-01T21:40:52.623Z,1.48
2023-01-01T21:43:32.360Z,1.30
2023-01-01T21:46:08.082Z,1.50
2023-01-01T21:48:40.595Z,1.27
2023-01-01T21:51:27.398Z,1.58
2023-01-01T21:54:02.961Z,1.80
2023-01-01T21:56:31.931Z,1.25
2023-01-01T21:59:27.490Z,1.20
2023-01-01T22:02:18.207Z,1.27
2023-01-01T22:04:50.411Z,1.40
2023-01-01T22:10:15.186Z,1.08
2023-01-01T22:12:41.857Z,1.27
2023-01-01T22:15:27.089Z,1.48
2023-01-01T22:18:05.624Z,1.15
2023-01-01T22:20:34.618Z,1.30
2023-01-01T22:23:05.346Z,1.30
2023-01-01T22:25:33.016Z,1.30
2023-01-01T22:28:15.574Z,1.40
2023-01-01T22:30:43.953Z,1.25
2023-01-01T22:33:39.213Z,1.42
2023-01-01T22:36:30.591Z,1.30
2023-01-01T22:39:10.125Z,1.60
2023-01-01T22:41:36.857Z,1.30
2023-01-01T22:44:04.299Z,1.42
2023-01-01T22:46:37.159Z,1.30
2023-01-01T22:49:23.073Z,1.60
2023-01-01T22:51:54.552Z,1.60
2023-01-01T22:54:21.205Z,1.40
2023-01-01T22:56:47.659Z,1.50
2023-01-01T22:59:14.285Z,1.52
2023-01-01T23:01:40.865Z,1.15
2023-01-01T23:04:07.414Z,1.35
2023-01-01T23:06:33.975Z,1.42
2023-01-01T23:09:00.713Z,1.50
2023-01-01T23:11:27.770Z,1.38
2023-01-01T23:14:12.956Z,1.45
2023-01-01T23:16:39.493Z,1.55
2023-01-01T23:19:06.066Z,1.60
2023-01-01T23:21:35.203Z,1.48
2023-01-01T23:24:05.047Z,1.58
2023-01-01T23:26:32.057Z,1.58
2023-01-01T23:28:58.561Z,1.77
2023-01-01T23:31:27.469Z,1.60
2023-01-01T23:33:54.883Z,1.42
2023-01-01T23:36:22.500Z,1.40
2023-01-01T23:38:49.317Z,1.42
2023-01-01T23:41:15.787Z,1.42
2023-01-01T23:43:43.738Z,1.50
2023-01-01T23:46:11.871Z,1.42
2023-01-01T23:48:38.899Z,1.13
2023-01-01T23:51:05.762Z,1.40
2023-01-01T23:53:32.283Z,1.27
2023-01-01T23:55:58.972Z,1.60
2023-01-01T23:58:25.455Z,1.50
